ADDS METAR Data INFO
IDs: Format: Raw Decoded Include TAF

Data at: 2257 UTC 22 Jun 2018

KGWR 221715Z AUTO 15006G12KT 10SM 27/14 A2987 RMK A01
KGWR 221655Z AUTO 18008KT 10SM 27/14 A2987 RMK A01
KGWR 221635Z AUTO 00000G11KT 10SM 27/14 A2987 RMK A01
KGWR 221615Z AUTO 00000G10KT 10SM 27/14 A2988 RMK A01
KGWR 221555Z AUTO 19007KT 10SM 26/15 A2988 RMK A01
KGWR 221535Z AUTO 18008KT 10SM 26/14 A2988 RMK A01
KGWR 221515Z AUTO 19007KT 10SM 26/16 A2989 RMK A01
KGWR 221455Z AUTO 20009KT 10SM 25/16 A2989 RMK A01
KGWR 221435Z AUTO 00000G10KT 10SM 24/16 A2989 RMK A01
KGWR 221415Z AUTO 20008KT 10SM 23/16 A2989 RMK A01
KGWR 221355Z AUTO 20007KT 10SM 22/16 A2989 RMK A01
KGWR 221335Z AUTO 00000KT 10SM 21/17 A2990 RMK A01
KGWR 221315Z AUTO 00000KT 10SM 20/16 A2990 RMK A01
KGWR 221255Z AUTO 21005KT 10SM 19/16 A2990 RMK A01
KGWR 221235Z AUTO 00000KT 10SM 19/16 A2990 RMK A01
KGWR 221215Z AUTO 21004KT 10SM 18/16 A2990 RMK A01
KGWR 221155Z AUTO 21003KT 10SM 18/16 A2990 RMK A01
KGWR 221135Z AUTO 00000KT 7SM 17/16 A2989 RMK A01
KGWR 221115Z AUTO 00000KT 9SM 16/16 A2989 RMK A01
KGWR 221055Z AUTO 19005KT 10SM 16/15 A2989 RMK A01
KGWR 221035Z AUTO 00000KT 10SM 16/15 A2990 RMK A01
KGWR 221015Z AUTO 00000KT 10SM 16/15 A2990 RMK A01
KGWR 220955Z AUTO 00000KT 10SM 17/16 A2990 RMK A01
KGWR 220935Z AUTO 00000KT 10SM 17/16 A2990 RMK A01
KGWR 220855Z AUTO 00000KT 10SM 18/16 A2990 RMK A01
KGWR 220835Z AUTO 00000KT 10SM 18/16 A2990 RMK A01
KGWR 220755Z AUTO 00000KT 10SM 19/16 A2991 RMK A01
KGWR 220735Z AUTO 00000KT 10SM 19/16 A2991 RMK A01
KGWR 220715Z AUTO 21006KT 10SM 20/16 A2991 RMK A01
KGWR 220655Z AUTO 00000KT 10SM 19/17 A2992 RMK A01
KGWR 220635Z AUTO 00000KT 10SM 20/16 A2992 RMK A01
KGWR 220615Z AUTO 00000KT 10SM 20/17 A2991 RMK A01
KGWR 220555Z AUTO 00000KT 10SM 20/17 A2991 RMK A01
KGWR 220535Z AUTO 00000KT 10SM 21/17 A2990 RMK A01
KGWR 220515Z AUTO 00000KT 10SM 21/17 A2990 RMK A01
KGWR 220455Z AUTO 00000KT 10SM 21/18 A2990 RMK A01
KGWR 220435Z AUTO 00000KT 10SM 22/17 A2991 RMK A01
KGWR 220415Z AUTO 00000KT 10SM 22/17 A2992 RMK A01
KGWR 220355Z AUTO 00000KT 10SM 21/17 A2992 RMK A01
KGWR 220335Z AUTO 00000KT 10SM 23/16 A2992 RMK A01
KGWR 220315Z AUTO 00000KT 10SM 23/17 A2992 RMK A01
KGWR 220255Z AUTO 00000KT 10SM 23/17 A2991 RMK A01
KGWR 220235Z AUTO 00000KT 10SM 25/16 A2991 RMK A01
KGWR 220215Z AUTO 00000KT 10SM 24/17 A2991 RMK A01
KGWR 220155Z AUTO 00000KT 10SM 25/16 A2991 RMK A01
KGWR 220135Z AUTO 00000KT 10SM 26/16 A2991 RMK A01
KGWR 220115Z AUTO 00000KT 10SM 27/15 A2991 RMK A01
KGWR 220055Z AUTO 00000KT 10SM 28/14 A2991 RMK A01
KGWR 220035Z AUTO 00000KT 10SM 28/14 A2991 RMK A01
KGWR 220015Z AUTO 00000KT 10SM 28/14 A2991 RMK A01
KGWR 212355Z AUTO 00000KT 10SM 27/14 A2991 RMK A01
KGWR 212335Z AUTO 00000KT 10SM 28/13 A2991 RMK A01
KGWR 212315Z AUTO 00000KT 10SM 28/14 A2991 RMK A01
KGWR 212255Z AUTO 00000KT 10SM 28/12 A2991 RMK A01
KGWR 212235Z AUTO 00000KT 10SM 29/14 A2991 RMK A01
KGWR 212215Z AUTO 00000KT 10SM 28/13 A2992 RMK A01
KGWR 212135Z AUTO 09006KT 10SM 29/14 A2992 RMK A01
KGWR 212115Z AUTO 00000KT 10SM 29/13 A2992 RMK A01
KGWR 212055Z AUTO 00000KT 10SM 28/13 A2992 RMK A01
KGWR 212035Z AUTO 00000KT 10SM 28/14 A2993 RMK A01
KGWR 212015Z AUTO 00000KT 10SM 29/13 A2992 RMK A01
KGWR 211955Z AUTO 00000KT 10SM 29/13 A2993 RMK A01
KGWR 211935Z AUTO 00000KT 10SM 28/13 A2993 RMK A01
KGWR 211915Z AUTO 00000KT 10SM 27/13 A2994 RMK A01
KGWR 211855Z AUTO 00000KT 10SM 27/13 A2994 RMK A01
KGWR 211835Z AUTO 00000KT 10SM 27/13 A2994 RMK A01
KGWR 211815Z AUTO 00000KT 10SM 27/13 A2994 RMK A01
KGWR 211755Z AUTO 00000KT 10SM 26/14 A2995 RMK A01
KGWR 211735Z AUTO 00000KT 10SM 25/14 A2995 RMK A01
KGWR 211715Z AUTO 00000KT 10SM 25/14 A2996 RMK A01
KGWR 211655Z AUTO 00000KT 10SM 25/15 A2996 RMK A01
KGWR 211635Z AUTO 00000KT 10SM 24/15 A2996 RMK A01
KGWR 211615Z AUTO 00000KT 10SM 23/15 A2995 RMK A01
KGWR 211555Z AUTO 00000KT 10SM 22/16 A2995 RMK A01
KGWR 211535Z AUTO 00000KT 10SM 22/15 A2995 RMK A01
KGWR 211515Z AUTO 00000KT 10SM 21/15 A2995 RMK A01
KGWR 211455Z AUTO 00000KT 10SM 21/15 A2995 RMK A01
KGWR 211435Z AUTO 02005KT 10SM 21/15 A2996 RMK A01
KGWR 211415Z AUTO 01006KT 10SM 20/15 A2995 RMK A01
KGWR 211355Z AUTO 01005KT 10SM 20/15 A2995 RMK A01
KGWR 211335Z AUTO 00000KT 10SM 20/14 A2995 RMK A01
KGWR 211315Z AUTO 00000KT 10SM 20/14 A2995 RMK A01
KGWR 211255Z AUTO 01007KT 10SM 20/14 A2994 RMK A01
KGWR 211235Z AUTO 00000KT 10SM 20/14 A2994 RMK A01
KGWR 211215Z AUTO 00000KT 10SM 19/13 A2994 RMK A01
KGWR 211155Z AUTO 36004KT 10SM 19/13 A2993 RMK A01
KGWR 211135Z AUTO 00000KT 10SM 19/13 A2993 RMK A01
KGWR 211115Z AUTO 00000KT 10SM 19/12 A2992 RMK A01